Time;durP1;ratioP1;P1;durP2;ratioP2;P2;SDS_P1;SDS_P2;PMS_P1;PMS_P2;Temp;Humidity;BMP_temperature;BMP_pressure;BME280_temperature;BME280_humidity;BME280_pressure;Samples;Min_cycle;Max_cycle;Signal;HPM_P1;HPM_P2
2023/07/05 00:01:15;;;;;;;11.02;5.13;;;19.30;99.90;;;;;;4789931;29;22351;-76
2023/07/05 00:03:43;;;;;;;7.53;4.53;;;19.30;99.90;;;;;;4786333;29;20060;-76
2023/07/05 00:06:10;;;;;;;10.80;5.43;;;19.30;99.90;;;;;;4810668;29;21102;-76
2023/07/05 00:08:37;;;;;;;7.32;4.38;;;19.30;99.90;;;;;;4772742;29;20176;-76
2023/07/05 00:11:06;;;;;;;12.70;5.53;;;19.30;99.90;;;;;;4798299;29;20479;-76
2023/07/05 00:13:34;;;;;;;7.55;4.00;;;19.30;99.90;;;;;;4813059;29;20054;-76
2023/07/05 00:16:01;;;;;;;9.40;4.53;;;19.20;99.90;;;;;;4795255;29;20062;-76
2023/07/05 00:18:29;;;;;;;7.25;4.47;;;19.20;99.90;;;;;;4812518;29;20062;-76
2023/07/05 00:21:04;;;;;;;7.88;4.40;;;19.20;99.90;;;;;;4798181;29;20061;-76
2023/07/05 00:23:33;;;;;;;11.13;4.85;;;19.20;99.90;;;;;;4805297;29;20050;-76
2023/07/05 00:26:02;;;;;;;8.65;4.32;;;19.20;99.90;;;;;;4782689;29;20062;-76
2023/07/05 00:28:33;;;;;;;8.25;3.97;;;19.10;99.90;;;;;;4786813;29;20041;-76
2023/07/05 00:31:00;;;;;;;7.75;4.35;;;19.20;99.90;;;;;;4805218;29;20054;-76
2023/07/05 00:33:28;;;;;;;9.68;4.68;;;19.10;99.90;;;;;;4788410;29;20787;-76
2023/07/05 00:35:55;;;;;;;9.18;4.93;;;19.10;99.90;;;;;;4782670;29;20062;-76
2023/07/05 00:38:23;;;;;;;10.65;4.13;;;19.10;99.90;;;;;;4786503;29;20065;-76
2023/07/05 00:40:51;;;;;;;10.40;3.92;;;19.10;99.90;;;;;;4784712;29;22512;-76
2023/07/05 00:43:19;;;;;;;8.18;3.85;;;19.10;99.90;;;;;;4801351;29;22725;-76
2023/07/05 00:45:54;;;;;;;9.30;4.30;;;19.10;99.90;;;;;;4785659;29;20088;-76
2023/07/05 00:48:34;;;;;;;8.45;3.90;;;19.00;99.90;;;;;;4803438;29;20072;-76
2023/07/05 00:51:23;;;;;;;6.75;4.20;;;19.00;99.90;;;;;;4778366;29;20046;-76
2023/07/05 00:53:55;;;;;;;9.02;3.85;;;19.00;99.90;;;;;;4801406;29;20069;-76
2023/07/05 00:56:28;;;;;;;10.20;4.25;;;19.00;99.90;;;;;;4784940;29;20726;-76
2023/07/05 00:58:57;;;;;;;6.32;3.15;;;19.00;99.90;;;;;;4802226;29;20054;-76
2023/07/05 01:01:25;;;;;;;10.88;4.30;;;19.00;99.90;;;;;;4802642;29;20414;-76
2023/07/05 01:03:56;;;;;;;9.68;4.25;;;19.00;99.90;;;;;;4794464;29;20062;-76
2023/07/05 01:06:25;;;;;;;6.75;4.07;;;18.90;99.90;;;;;;4780660;29;20153;-76
2023/07/05 01:08:52;;;;;;;6.22;3.80;;;18.90;99.90;;;;;;4800891;29;20065;-76
2023/07/05 01:12:01;;;;;;;7.45;4.43;;;18.90;99.90;;;;;;4778814;29;20050;-76
2023/07/05 01:14:46;;;;;;;9.63;4.03;;;18.90;99.90;;;;;;4758995;29;20158;-76
2023/07/05 01:17:29;;;;;;;7.18;4.22;;;18.80;99.90;;;;;;4781952;29;20722;-76
2023/07/05 01:20:03;;;;;;;;;;;18.80;99.90;;;;;;4772554;29;20530;-76
2023/07/05 01:22:52;;;;;;;8.15;4.22;;;18.80;99.90;;;;;;4798371;29;19924;-76
2023/07/05 01:25:41;;;;;;;9.05;4.55;;;18.80;99.90;;;;;;4800693;29;20524;-76
2023/07/05 01:28:44;;;;;;;7.38;3.72;;;18.70;99.90;;;;;;4780011;29;20074;-76
2023/07/05 01:31:36;;;;;;;8.93;4.78;;;18.70;99.90;;;;;;4777598;29;20068;-76
2023/07/05 01:34:09;;;;;;;8.98;3.85;;;18.70;99.90;;;;;;4794830;29;20180;-76
2023/07/05 01:36:37;;;;;;;6.13;3.47;;;18.70;99.90;;;;;;4800121;29;20084;-76
2023/07/05 01:39:05;;;;;;;7.10;3.15;;;18.70;99.90;;;;;;4815928;29;20060;-76
2023/07/05 01:41:32;;;;;;;8.15;3.53;;;18.70;99.90;;;;;;4800205;29;20054;-76
2023/07/05 01:43:59;;;;;;;6.18;3.72;;;18.70;99.90;;;;;;4776866;29;20157;-76
2023/07/05 01:46:30;;;;;;;7.43;3.95;;;18.70;99.90;;;;;;4786499;29;20602;-76
2023/07/05 01:49:40;;;;;;;6.70;3.92;;;18.70;99.90;;;;;;4800183;29;20411;-76
2023/07/05 01:52:22;;;;;;;8.90;4.07;;;18.60;99.90;;;;;;4784322;29;20066;-76
2023/07/05 01:55:18;;;;;;;8.27;4.03;;;18.60;99.90;;;;;;4785767;29;20057;-76
2023/07/05 01:58:07;;;;;;;9.20;3.63;;;18.50;99.90;;;;;;4785586;29;20107;-76
2023/07/05 02:00:37;;;;;;;8.23;3.80;;;18.50;99.90;;;;;;4794067;29;20080;-76
2023/07/05 02:03:12;;;;;;;8.77;3.60;;;18.50;99.90;;;;;;4811090;29;20058;-76
2023/07/05 02:05:39;;;;;;;10.77;4.20;;;18.50;99.90;;;;;;4782468;29;20054;-76
2023/07/05 02:08:06;;;;;;;8.25;4.30;;;18.50;99.90;;;;;;4783470;29;20038;-76
2023/07/05 02:10:34;;;;;;;8.80;3.03;;;18.50;99.90;;;;;;4790067;29;20137;-76
2023/07/05 02:13:07;;;;;;;10.18;4.93;;;18.40;99.90;;;;;;4778070;29;20523;-76
2023/07/05 02:15:37;;;;;;;11.05;4.03;;;18.40;99.90;;;;;;4798955;29;20429;-76
2023/07/05 02:18:07;;;;;;;8.07;4.47;;;18.50;99.90;;;;;;4803159;29;20048;-76
2023/07/05 02:20:35;;;;;;;9.48;4.32;;;18.40;99.90;;;;;;4789487;29;20541;-76
2023/07/05 02:23:03;;;;;;;10.15;4.53;;;18.40;99.90;;;;;;4775481;29;20095;-76
2023/07/05 02:25:35;;;;;;;9.02;4.15;;;18.40;99.90;;;;;;4780185;29;20042;-76
2023/07/05 02:28:07;;;;;;;11.73;4.90;;;18.40;99.90;;;;;;4818584;29;20502;-76
2023/07/05 02:30:36;;;;;;;9.05;3.80;;;18.40;99.90;;;;;;4780441;29;20057;-76
2023/07/05 02:33:04;;;;;;;8.07;4.45;;;18.40;99.90;;;;;;4786081;29;20053;-76
2023/07/05 02:35:35;;;;;;;9.35;4.63;;;18.40;99.90;;;;;;4783798;29;20743;-76
2023/07/05 02:38:04;;;;;;;10.43;5.67;;;18.30;99.90;;;;;;4800822;29;20065;-76
2023/07/05 02:40:31;;;;;;;9.43;4.43;;;18.30;99.90;;;;;;4813189;29;20052;-76
2023/07/05 02:42:59;;;;;;;8.88;5.07;;;18.30;99.90;;;;;;4789811;29;22395;-76
2023/07/05 02:45:27;;;;;;;10.82;5.03;;;18.20;99.90;;;;;;4770270;29;20104;-76
2023/07/05 02:47:55;;;;;;;9.75;5.40;;;18.30;99.90;;;;;;4786579;29;20058;-76
2023/07/05 02:50:23;;;;;;;7.07;3.88;;;18.30;99.90;;;;;;4772582;29;20050;-76
2023/07/05 02:52:50;;;;;;;7.65;4.15;;;18.20;99.90;;;;;;4787443;29;22285;-76
2023/07/05 02:55:18;;;;;;;7.53;4.20;;;18.30;99.90;;;;;;4806174;29;22276;-76
2023/07/05 02:57:45;;;;;;;11.27;3.85;;;18.20;99.90;;;;;;4778958;29;20060;-76
2023/07/05 03:00:13;;;;;;;10.50;4.80;;;18.30;99.90;;;;;;4771608;29;22346;-76
2023/07/05 03:02:40;;;;;;;9.20;4.72;;;18.30;99.90;;;;;;4782951;29;20142;-76
2023/07/05 03:05:09;;;;;;;8.85;4.72;;;18.20;99.90;;;;;;4787843;29;20130;-76
2023/07/05 03:07:36;;;;;;;10.85;4.78;;;18.20;99.90;;;;;;4791109;29;20402;-76
2023/07/05 03:10:05;;;;;;;10.30;5.20;;;18.20;99.90;;;;;;4768687;29;20206;-76
2023/07/05 03:12:32;;;;;;;10.02;5.28;;;18.20;99.90;;;;;;4802526;29;20117;-76
2023/07/05 03:14:59;;;;;;;8.88;4.90;;;18.20;99.90;;;;;;4802869;29;20149;-76
2023/07/05 03:17:26;;;;;;;10.95;4.88;;;18.20;99.90;;;;;;4812441;29;20569;-76
2023/07/05 03:19:56;;;;;;;11.20;5.15;;;18.20;99.90;;;;;;4798597;29;20050;-76
2023/07/05 03:22:24;;;;;;;10.73;4.53;;;18.20;99.90;;;;;;4790545;29;20122;-76
2023/07/05 03:24:51;;;;;;;8.07;4.40;;;18.20;99.90;;;;;;4805242;29;20054;-76
2023/07/05 03:27:19;;;;;;;10.90;5.28;;;18.20;99.90;;;;;;4787990;29;20597;-76
2023/07/05 03:29:47;;;;;;;11.32;5.40;;;18.20;99.90;;;;;;4823004;29;20046;-76
2023/07/05 03:32:15;;;;;;;12.02;5.78;;;18.20;99.90;;;;;;4801017;29;20057;-76
2023/07/05 03:34:42;;;;;;;11.60;5.32;;;18.20;99.90;;;;;;4771501;29;20050;-76
2023/07/05 03:37:10;;;;;;;12.20;6.28;;;18.30;99.90;;;;;;4781739;29;20097;-76
2023/07/05 03:39:37;;;;;;;9.13;4.65;;;18.30;99.90;;;;;;4820697;29;20161;-76
2023/07/05 03:42:04;;;;;;;10.07;5.03;;;18.20;99.90;;;;;;4795407;29;20057;-76
2023/07/05 03:44:31;;;;;;;10.73;4.95;;;18.30;99.90;;;;;;4799304;29;20477;-76
2023/07/05 03:46:58;;;;;;;11.50;5.63;;;18.30;99.90;;;;;;4785846;29;20058;-76
2023/07/05 03:49:25;;;;;;;9.63;4.93;;;18.30;99.90;;;;;;4789175;29;20426;-76
2023/07/05 03:51:53;;;;;;;12.38;5.95;;;18.30;99.90;;;;;;4809577;29;20050;-76
2023/07/05 03:54:24;;;;;;;10.48;5.57;;;18.40;99.90;;;;;;4801670;29;20056;-76
2023/07/05 03:56:51;;;;;;;12.43;5.38;;;18.40;99.90;;;;;;4801464;29;20062;-76
2023/07/05 03:59:18;;;;;;;11.63;5.97;;;18.40;99.90;;;;;;4787740;29;20050;-76
2023/07/05 04:01:45;;;;;;;10.13;4.97;;;18.50;99.90;;;;;;4795645;29;20058;-76
2023/07/05 04:04:12;;;;;;;14.77;6.40;;;18.50;99.90;;;;;;4784406;29;20085;-76
2023/07/05 04:06:39;;;;;;;9.95;5.57;;;18.50;99.90;;;;;;4799273;29;20057;-76
2023/07/05 04:09:06;;;;;;;13.10;6.65;;;18.50;99.90;;;;;;4813832;29;20507;-76
2023/07/05 04:11:33;;;;;;;12.90;6.07;;;18.50;99.90;;;;;;4785327;29;20049;-76
2023/07/05 04:14:01;;;;;;;11.48;5.13;;;18.60;99.90;;;;;;4769282;29;20069;-76
2023/07/05 04:16:28;;;;;;;12.52;6.55;;;18.60;99.90;;;;;;4802369;29;20407;-76
2023/07/05 04:18:57;;;;;;;11.43;5.82;;;18.60;99.90;;;;;;4804711;29;20203;-76
2023/07/05 04:21:26;;;;;;;13.15;6.30;;;18.60;99.90;;;;;;4802607;29;20056;-76
2023/07/05 04:23:54;;;;;;;12.45;6.93;;;18.60;99.90;;;;;;4797251;29;22603;-76
2023/07/05 04:26:25;;;;;;;12.88;6.82;;;18.60;99.90;;;;;;4785457;29;20057;-76
2023/07/05 04:28:53;;;;;;;16.55;6.68;;;18.70;99.90;;;;;;4786483;29;20470;-75
2023/07/05 04:31:29;;;;;;;12.40;5.75;;;18.70;99.90;;;;;;4783296;29;22558;-75
2023/07/05 04:33:58;;;;;;;9.80;5.68;;;18.90;99.90;;;;;;4787044;29;20056;-75
2023/07/05 04:36:27;;;;;;;10.90;5.80;;;19.00;99.90;;;;;;4773265;29;20502;-76
2023/07/05 04:39:00;;;;;;;13.05;6.18;;;18.80;99.90;;;;;;4809009;29;20042;-76
2023/07/05 04:41:28;;;;;;;;;;;19.50;99.90;;;;;;4773224;29;22154;-76
2023/07/05 04:43:56;;;;;;;13.63;7.07;;;19.40;99.90;;;;;;4806293;29;20481;-76
2023/07/05 04:46:24;;;;;;;14.07;7.30;;;19.40;99.90;;;;;;4770072;29;20221;-76
2023/07/05 04:48:52;;;;;;;12.40;7.03;;;19.40;99.90;;;;;;4793098;29;20134;-76
2023/07/05 04:51:20;;;;;;;15.70;7.45;;;19.50;99.90;;;;;;4789386;29;20093;-75
2023/07/05 04:53:47;;;;;;;14.60;6.95;;;19.50;99.90;;;;;;4784555;29;20187;-76
2023/07/05 04:56:16;;;;;;;15.82;6.88;;;20.60;99.90;;;;;;4798147;29;20066;-75
2023/07/05 04:58:44;;;;;;;15.82;6.78;;;19.70;99.90;;;;;;4791638;29;20518;-76
2023/07/05 05:01:13;;;;;;;11.65;5.93;;;20.20;99.90;;;;;;4788562;29;20838;-76
2023/07/05 05:03:41;;;;;;;13.77;6.68;;;19.90;99.90;;;;;;4780190;29;20058;-76
2023/07/05 05:06:09;;;;;;;13.25;7.07;;;20.00;99.90;;;;;;4781468;29;20137;-75
2023/07/05 05:08:36;;;;;;;13.90;7.10;;;20.10;99.90;;;;;;4782313;29;20414;-76
2023/07/05 05:11:06;;;;;;;15.55;8.30;;;20.20;99.90;;;;;;4777508;29;20125;-76
2023/07/05 05:13:35;;;;;;;15.23;8.55;;;21.30;99.90;;;;;;4785088;29;20054;-75
2023/07/05 05:16:03;;;;;;;15.30;7.50;;;20.00;99.90;;;;;;4812045;29;20041;-75
2023/07/05 05:18:33;;;;;;;17.40;8.20;;;20.50;99.90;;;;;;4786555;29;20087;-75
2023/07/05 05:21:01;;;;;;;17.58;7.72;;;20.60;99.90;;;;;;4786922;29;20058;-75
2023/07/05 05:23:29;;;;;;;12.27;6.57;;;21.40;99.90;;;;;;4802534;29;20114;-75
2023/07/05 05:25:59;;;;;;;13.85;7.47;;;20.80;99.90;;;;;;4767995;29;22186;-75
2023/07/05 05:28:26;;;;;;;16.20;8.63;;;20.90;99.90;;;;;;4784832;29;22432;-75
2023/07/05 05:31:04;;;;;;;15.70;7.85;;;21.00;99.90;;;;;;4802139;29;20442;-75
2023/07/05 05:33:32;;;;;;;13.65;7.35;;;21.10;99.90;;;;;;4801524;29;20520;-75
2023/07/05 05:35:59;;;;;;;19.63;7.88;;;21.20;99.90;;;;;;4802443;29;20215;-75
2023/07/05 05:38:26;;;;;;;17.73;8.73;;;21.40;99.90;;;;;;4785105;29;20058;-75
2023/07/05 05:41:04;;;;;;;15.10;7.82;;;21.40;99.90;;;;;;4783545;29;20065;-76
2023/07/05 05:43:31;;;;;;;15.23;7.78;;;21.50;99.90;;;;;;4788875;29;20447;-77
2023/07/05 05:45:58;;;;;;;18.88;8.23;;;21.60;99.90;;;;;;4795083;29;20441;-76
2023/07/05 05:48:26;;;;;;;15.65;6.82;;;21.70;99.90;;;;;;4776460;29;20710;-75
2023/07/05 05:50:54;;;;;;;12.35;6.53;;;21.90;99.90;;;;;;4796117;29;20056;-76
2023/07/05 05:53:22;;;;;;;12.82;6.53;;;22.10;99.90;;;;;;4781312;29;20533;-76
2023/07/05 05:55:49;;;;;;;15.45;7.15;;;22.20;99.90;;;;;;4800018;29;20945;-76
2023/07/05 05:58:16;;;;;;;16.63;7.13;;;22.20;99.90;;;;;;4769247;29;20054;-76
2023/07/05 06:00:43;;;;;;;12.05;6.22;;;22.40;99.90;;;;;;4794816;29;20053;-76
2023/07/05 06:03:10;;;;;;;13.35;6.40;;;22.50;99.90;;;;;;4781106;29;22258;-76
2023/07/05 06:05:37;;;;;;;13.15;5.97;;;22.50;99.90;;;;;;4782193;29;20053;-75
2023/07/05 06:08:04;;;;;;;11.70;5.50;;;22.60;99.90;;;;;;4791873;29;20054;-76
2023/07/05 06:10:32;;;;;;;8.98;4.75;;;22.80;99.90;;;;;;4799559;29;20512;-76
2023/07/05 06:12:59;;;;;;;9.10;5.20;;;23.00;99.90;;;;;;4797525;29;20998;-76
2023/07/05 06:15:26;;;;;;;10.23;5.28;;;23.00;99.90;;;;;;4775154;29;20054;-76
2023/07/05 06:17:54;;;;;;;10.02;5.10;;;23.20;99.90;;;;;;4798755;29;20058;-75
2023/07/05 06:20:24;;;;;;;10.32;5.05;;;23.30;99.90;;;;;;4793723;29;20265;-76
2023/07/05 06:22:52;;;;;;;10.00;5.03;;;23.30;99.90;;;;;;4782576;29;20282;-76
2023/07/05 06:25:19;;;;;;;11.18;5.15;;;23.40;99.90;;;;;;4799292;29;20058;-76
2023/07/05 06:27:46;;;;;;;9.60;5.90;;;23.60;99.90;;;;;;4788837;29;20061;-76
2023/07/05 06:30:13;;;;;;;10.88;5.57;;;23.70;99.90;;;;;;4803117;29;20089;-76
2023/07/05 06:32:40;;;;;;;10.18;4.85;;;23.70;99.90;;;;;;4794891;29;20049;-76
2023/07/05 06:35:08;;;;;;;9.45;4.30;;;23.80;99.90;;;;;;4796884;29;20107;-75
2023/07/05 06:37:35;;;;;;;10.65;4.97;;;23.90;99.90;;;;;;4796479;29;20054;-76
2023/07/05 06:40:03;;;;;;;11.38;5.68;;;24.00;99.70;;;;;;4780649;29;20055;-75
2023/07/05 06:42:30;;;;;;;15.65;6.03;;;24.10;99.90;;;;;;4797245;29;20813;-76
2023/07/05 06:45:06;;;;;;;11.18;5.47;;;24.10;99.90;;;;;;4800551;29;20133;-76
2023/07/05 06:47:33;;;;;;;11.43;5.22;;;24.20;99.90;;;;;;4807963;29;20061;-76
2023/07/05 06:50:01;;;;;;;10.52;4.95;;;24.40;99.90;;;;;;4791749;29;20062;-76
2023/07/05 06:52:28;;;;;;;8.77;4.45;;;24.60;99.90;;;;;;4799064;29;20054;-76
2023/07/05 06:54:55;;;;;;;8.55;4.20;;;24.70;99.20;;;;;;4768928;29;20046;-77
2023/07/05 06:57:22;;;;;;;16.20;6.30;;;24.70;99.90;;;;;;4784409;29;20053;-75
2023/07/05 06:59:49;;;;;;;10.15;4.80;;;24.80;99.90;;;;;;4797352;29;22140;-77
2023/07/05 07:02:16;;;;;;;11.57;5.18;;;24.90;99.90;;;;;;4786144;29;20736;-76
2023/07/05 07:04:44;;;;;;;9.75;5.15;;;25.00;99.80;;;;;;4802026;29;20053;-76
2023/07/05 07:07:11;;;;;;;8.48;5.07;;;25.00;98.20;;;;;;4797889;29;20146;-77
2023/07/05 07:09:40;;;;;;;10.45;5.13;;;25.00;97.50;;;;;;4784476;29;20514;-76
2023/07/05 07:12:09;;;;;;;7.53;4.03;;;25.10;97.80;;;;;;4786778;29;20042;-76
2023/07/05 07:14:36;;;;;;;8.45;4.43;;;25.10;96.20;;;;;;4806856;29;20210;-77
2023/07/05 07:17:03;;;;;;;8.32;4.55;;;25.20;95.80;;;;;;4775741;29;20049;-77
2023/07/05 07:19:31;;;;;;;6.75;3.95;;;25.30;96.50;;;;;;4804906;29;20427;-77
2023/07/05 07:21:58;;;;;;;7.65;4.03;;;25.40;96.00;;;;;;4790422;29;21907;-76
2023/07/05 07:24:25;;;;;;;6.93;3.65;;;25.60;95.50;;;;;;4804176;29;20058;-76
2023/07/05 07:26:52;;;;;;;7.88;3.75;;;25.60;94.70;;;;;;4802009;29;20057;-76
2023/07/05 07:29:19;;;;;;;8.02;3.92;;;25.50;93.50;;;;;;4788160;29;20057;-79
2023/07/05 07:31:46;;;;;;;9.55;4.10;;;25.60;94.10;;;;;;4789942;29;20076;-77
2023/07/05 07:34:14;;;;;;;9.05;4.40;;;25.70;94.20;;;;;;4776302;29;20054;-76
2023/07/05 07:36:41;;;;;;;8.30;3.45;;;25.70;94.00;;;;;;4796678;29;20054;-76
2023/07/05 07:39:10;;;;;;;8.23;3.80;;;25.90;94.00;;;;;;4794652;29;20046;-76
2023/07/05 07:41:38;;;;;;;6.95;4.10;;;25.70;92.10;;;;;;4802090;29;20520;-76
2023/07/05 07:44:08;;;;;;;8.38;4.43;;;25.90;92.90;;;;;;4811686;29;20515;-78
2023/07/05 07:46:37;;;;;;;9.98;4.15;;;25.90;92.80;;;;;;4791537;29;20460;-77
2023/07/05 07:49:06;;;;;;;8.27;4.25;;;25.90;93.60;;;;;;4792265;29;20057;-77
2023/07/05 07:51:37;;;;;;;9.40;4.45;;;26.00;93.00;;;;;;4791649;29;20057;-77
2023/07/05 07:54:17;;;;;;;7.10;4.47;;;26.00;93.70;;;;;;4773472;29;20045;-77
2023/07/05 07:56:46;;;;;;;11.45;4.45;;;26.10;93.40;;;;;;4800136;29;20210;-77
2023/07/05 07:59:15;;;;;;;8.75;5.10;;;26.10;93.30;;;;;;4784292;29;20050;-77
2023/07/05 08:01:44;;;;;;;8.27;4.53;;;26.20;92.70;;;;;;4803662;29;20177;-76
2023/07/05 08:04:13;;;;;;;9.13;4.53;;;26.20;91.40;;;;;;4801847;29;20111;-77
2023/07/05 08:06:40;;;;;;;8.13;4.22;;;26.30;90.90;;;;;;4798459;29;20184;-77
2023/07/05 08:09:11;;;;;;;7.07;3.22;;;26.30;90.90;;;;;;4811469;29;20038;-76
2023/07/05 08:11:39;;;;;;;7.68;3.95;;;26.40;87.30;;;;;;4799617;29;20615;-77
2023/07/05 08:14:07;;;;;;;9.07;4.28;;;26.40;88.80;;;;;;4804711;29;20052;-77
2023/07/05 08:16:35;;;;;;;6.13;4.03;;;26.30;88.20;;;;;;4779582;29;20050;-77
2023/07/05 08:19:02;;;;;;;7.35;4.18;;;26.20;90.20;;;;;;4789699;29;20048;-77
2023/07/05 08:21:29;;;;;;;8.55;4.28;;;26.30;90.30;;;;;;4809131;29;20129;-77
2023/07/05 08:23:57;;;;;;;7.82;3.83;;;26.40;92.00;;;;;;4781556;29;20635;-77
2023/07/05 08:26:29;;;;;;;9.80;3.67;;;26.40;92.10;;;;;;4763392;29;22478;-76
2023/07/05 08:28:59;;;;;;;7.35;3.70;;;26.60;92.80;;;;;;4801734;29;20552;-76
2023/07/05 08:31:27;;;;;;;6.05;3.15;;;26.70;91.00;;;;;;4801196;29;20130;-76
2023/07/05 08:33:55;;;;;;;8.98;3.97;;;26.80;91.30;;;;;;4771117;29;20072;-77
2023/07/05 08:36:36;;;;;;;7.18;3.60;;;26.60;90.40;;;;;;4784056;29;20518;-77
2023/07/05 08:39:05;;;;;;;7.38;3.58;;;26.80;90.80;;;;;;4784770;29;20093;-77
2023/07/05 08:41:42;;;;;;;10.40;3.95;;;26.80;88.90;;;;;;4784770;29;20056;-76
2023/07/05 08:44:46;;;;;;;6.35;3.83;;;26.80;89.50;;;;;;4766686;29;20555;-76
2023/07/05 08:47:23;;;;;;;7.50;3.60;;;26.80;89.50;;;;;;4803372;29;22914;-76
2023/07/05 08:50:15;;;;;;;8.15;3.97;;;26.40;89.50;;;;;;4803601;29;20069;-76
2023/07/05 08:53:11;;;;;;;7.53;4.28;;;26.70;90.10;;;;;;4784660;29;20046;-76
2023/07/05 08:55:52;;;;;;;7.43;3.70;;;26.60;87.70;;;;;;4798060;29;20042;-75
2023/07/05 08:58:44;;;;;;;6.60;3.70;;;26.70;89.40;;;;;;4791192;29;22328;-76
2023/07/05 09:01:32;;;;;;;6.00;3.45;;;26.90;88.70;;;;;;4773921;29;20329;-76
2023/07/05 09:03:59;;;;;;;11.20;4.07;;;27.00;89.40;;;;;;4806083;29;20082;-76
2023/07/05 09:06:47;;;;;;;8.32;4.22;;;27.00;88.70;;;;;;4809441;29;20526;-76
2023/07/05 09:09:23;;;;;;;7.82;3.88;;;27.00;90.20;;;;;;4801688;29;20562;-77
2023/07/05 09:12:27;;;;;;;8.02;3.58;;;27.00;88.70;;;;;;4789677;29;20061;-77
2023/07/05 09:15:02;;;;;;;8.25;4.43;;;26.90;87.90;;;;;;4792376;29;20433;-77
2023/07/05 09:17:52;;;;;;;7.82;4.45;;;26.80;89.80;;;;;;4791402;29;21128;-77
2023/07/05 09:20:28;;;;;;;8.63;4.25;;;26.90;87.50;;;;;;4785847;29;20052;-76
2023/07/05 09:22:59;;;;;;;6.10;4.15;;;27.00;88.20;;;;;;4796119;29;20053;-75
2023/07/05 09:25:29;;;;;;;9.60;4.80;;;27.10;88.90;;;;;;4805835;29;20874;-77
2023/07/05 09:28:35;;;;;;;5.63;3.40;;;27.20;87.10;;;;;;4772393;29;20057;-76
2023/07/05 09:31:07;;;;;;;5.95;3.22;;;27.20;85.90;;;;;;4798597;29;20097;-76
2023/07/05 09:33:46;;;;;;;6.80;3.53;;;27.30;86.40;;;;;;4799463;29;20046;-76
2023/07/05 09:36:25;;;;;;;5.78;3.20;;;27.30;85.40;;;;;;4798717;29;20674;-77
2023/07/05 09:39:23;;;;;;;9.50;4.25;;;27.30;85.60;;;;;;4795402;29;20494;-76
2023/07/05 09:41:53;;;;;;;7.57;4.03;;;27.30;87.30;;;;;;4796927;29;20058;-76
2023/07/05 09:44:21;;;;;;;7.75;4.22;;;27.20;85.60;;;;;;4789671;29;20074;-77
2023/07/05 09:46:49;;;;;;;8.00;4.43;;;26.80;87.00;;;;;;4789329;29;20110;-76
2023/07/05 09:49:19;;;;;;;10.18;4.50;;;26.70;83.30;;;;;;4802911;29;20068;-77
2023/07/05 09:51:46;;;;;;;7.30;3.92;;;26.80;84.60;;;;;;4798834;29;20050;-77
2023/07/05 09:54:32;;;;;;;7.72;3.85;;;27.00;85.90;;;;;;4766069;29;20737;-77
2023/07/05 09:57:06;;;;;;;6.22;3.58;;;27.20;85.10;;;;;;4809315;29;20065;-78
2023/07/05 09:59:34;;;;;;;6.05;3.72;;;27.20;85.10;;;;;;4783274;29;20402;-77
2023/07/05 10:02:12;;;;;;;6.03;4.20;;;27.30;83.60;;;;;;4793936;29;20065;-77
2023/07/05 10:05:13;;;;;;;7.00;4.47;;;27.10;82.30;;;;;;4786226;29;20530;-76
2023/07/05 10:07:55;;;;;;;6.97;3.80;;;27.00;81.70;;;;;;4798938;29;20341;-76
2023/07/05 10:10:27;;;;;;;7.47;4.00;;;27.20;84.80;;;;;;4807143;29;20281;-77
2023/07/05 10:13:12;;;;;;;7.47;3.72;;;27.30;81.40;;;;;;4785641;29;20061;-77
2023/07/05 10:15:45;;;;;;;6.45;3.20;;;27.50;80.80;;;;;;4800276;29;20456;-76
2023/07/05 10:18:40;;;;;;;6.78;3.92;;;27.50;80.10;;;;;;4785850;29;20109;-77
2023/07/05 10:21:19;;;;;;;6.70;3.40;;;27.50;80.70;;;;;;4785949;29;20054;-76
2023/07/05 10:23:48;;;;;;;6.32;3.47;;;27.50;80.50;;;;;;4787132;29;20294;-76
2023/07/05 10:26:17;;;;;;;6.47;3.90;;;27.50;80.00;;;;;;4799481;29;20786;-77
2023/07/05 10:28:46;;;;;;;6.13;3.42;;;27.30;77.10;;;;;;4764358;29;20054;-76
2023/07/05 10:31:50;;;;;;;5.95;3.47;;;27.40;81.00;;;;;;4781275;29;20046;-77
2023/07/05 10:34:24;;;;;;;7.57;3.55;;;27.50;78.50;;;;;;4796345;29;20054;-77
2023/07/05 10:36:52;;;;;;;6.65;3.78;;;27.40;76.90;;;;;;4803956;29;20874;-77
2023/07/05 10:39:26;;;;;;;6.85;4.05;;;27.40;78.50;;;;;;4801433;29;20073;-77
2023/07/05 10:41:58;;;;;;;6.68;3.15;;;27.30;77.40;;;;;;4798552;29;20514;-76
2023/07/05 10:44:39;;;;;;;7.18;3.63;;;27.30;78.30;;;;;;4824214;29;20050;-76
2023/07/05 10:47:09;;;;;;;6.63;3.45;;;27.50;81.20;;;;;;4805446;29;20069;-77
2023/07/05 10:49:37;;;;;;;5.00;3.35;;;27.50;80.00;;;;;;4806579;29;20053;-76
2023/07/05 10:52:11;;;;;;;6.25;3.67;;;27.10;79.20;;;;;;4805944;29;20050;-76
2023/07/05 10:55:02;;;;;;;5.10;3.33;;;26.80;78.60;;;;;;4790704;29;20065;-76
2023/07/05 10:57:34;;;;;;;5.25;3.30;;;26.90;80.10;;;;;;4786587;29;20046;-76
2023/07/05 11:00:28;;;;;;;5.85;3.17;;;27.10;78.50;;;;;;4814140;29;20525;-76
2023/07/05 11:03:11;;;;;;;6.25;3.67;;;27.30;78.80;;;;;;4796560;29;20814;-76
2023/07/05 11:05:48;;;;;;;6.45;3.55;;;27.40;78.70;;;;;;4802741;29;20483;-76
2023/07/05 11:08:39;;;;;;;8.30;3.83;;;27.40;78.00;;;;;;4799809;29;20058;-78
2023/07/05 11:11:32;;;;;;;6.35;3.50;;;27.00;77.30;;;;;;4804358;29;20056;-76
2023/07/05 11:14:03;;;;;;;7.63;3.40;;;26.70;79.70;;;;;;4786418;29;20058;-76
2023/07/05 11:16:33;;;;;;;6.27;3.33;;;26.60;79.30;;;;;;4808414;29;20058;-77
2023/07/05 11:19:03;;;;;;;9.73;3.70;;;26.50;82.40;;;;;;4788639;29;20314;-77
2023/07/05 11:21:42;;;;;;;12.77;4.22;;;26.30;82.20;;;;;;4818394;29;20052;-77
2023/07/05 11:24:10;;;;;;;5.38;2.90;;;26.30;82.20;;;;;;4775307;29;20416;-76
2023/07/05 11:26:43;;;;;;;6.38;3.35;;;26.50;80.40;;;;;;4813193;29;20057;-76
2023/07/05 11:29:31;;;;;;;5.18;2.80;;;26.90;77.90;;;;;;4814103;29;20082;-78
2023/07/05 11:32:02;;;;;;;7.70;3.53;;;27.10;79.30;;;;;;4800063;29;20061;-78
2023/07/05 11:34:33;;;;;;;4.50;3.25;;;27.20;77.20;;;;;;4787225;29;20692;-76
2023/07/05 11:37:06;;;;;;;6.88;3.92;;;27.30;78.00;;;;;;4804168;29;20192;-76
2023/07/05 11:39:41;;;;;;;7.45;3.72;;;27.50;77.50;;;;;;4787831;29;20403;-76
2023/07/05 11:42:15;;;;;;;6.80;3.40;;;27.40;78.70;;;;;;4779835;29;20141;-77
2023/07/05 11:45:04;;;;;;;5.07;2.97;;;27.50;76.80;;;;;;4770832;29;20077;-76
2023/07/05 11:47:34;;;;;;;4.82;3.15;;;27.70;78.30;;;;;;4782086;29;20144;-76
2023/07/05 11:50:07;;;;;;;6.15;3.80;;;27.40;77.90;;;;;;4802187;29;20054;-76
2023/07/05 11:52:43;;;;;;;8.70;4.65;;;27.10;78.00;;;;;;4776090;29;20096;-77
2023/07/05 11:55:18;;;;;;;7.80;4.32;;;26.80;77.00;;;;;;4789976;29;20058;-77
2023/07/05 11:58:09;;;;;;;7.68;3.63;;;27.00;78.10;;;;;;4811721;29;20062;-76
2023/07/05 12:00:48;;;;;;;7.25;4.05;;;26.90;78.00;;;;;;4813793;29;20046;-77
2023/07/05 12:03:18;;;;;;;5.68;3.47;;;27.10;79.50;;;;;;4793263;29;20470;-77
2023/07/05 12:06:12;;;;;;;6.35;3.45;;;27.40;80.70;;;;;;4803511;29;20404;-77
2023/07/05 12:08:44;;;;;;;7.00;3.60;;;27.50;78.90;;;;;;4816109;29;20115;-77
2023/07/05 12:11:14;;;;;;;6.88;3.42;;;27.50;79.60;;;;;;4816139;29;20125;-77
2023/07/05 12:13:41;;;;;;;5.13;2.95;;;27.20;78.10;;;;;;4786747;29;20049;-77
2023/07/05 12:16:16;;;;;;;8.65;3.65;;;27.00;79.80;;;;;;4785477;29;20050;-76
2023/07/05 12:18:43;;;;;;;5.28;3.38;;;27.10;80.40;;;;;;4813552;29;20779;-76
2023/07/05 12:21:12;;;;;;;6.03;3.45;;;27.40;81.30;;;;;;4801034;29;20510;-76
2023/07/05 12:23:40;;;;;;;7.05;4.03;;;27.60;79.80;;;;;;4804620;29;20467;-76
2023/07/05 12:26:27;;;;;;;5.88;3.53;;;27.60;80.50;;;;;;4788716;29;20054;-77
2023/07/05 12:28:55;;;;;;;7.25;3.58;;;27.20;79.30;;;;;;4776660;29;22532;-77
2023/07/05 12:31:24;;;;;;;8.00;3.70;;;27.10;79.50;;;;;;4784430;29;20098;-76
2023/07/05 12:33:57;;;;;;;7.25;4.25;;;27.20;78.50;;;;;;4778538;29;23267;-76
2023/07/05 12:36:25;;;;;;;6.78;3.72;;;27.10;78.80;;;;;;4794670;29;20052;-76
2023/07/05 12:39:13;;;;;;;6.88;3.88;;;27.00;78.50;;;;;;4804801;29;20442;-76
2023/07/05 12:41:41;;;;;;;6.53;3.90;;;26.80;78.90;;;;;;4800153;29;20190;-76
2023/07/05 12:44:16;;;;;;;7.35;3.70;;;26.70;81.70;;;;;;4797295;29;20050;-76
2023/07/05 12:46:43;;;;;;;6.13;3.80;;;26.70;81.50;;;;;;4778016;29;20065;-78
2023/07/05 12:49:26;;;;;;;5.97;3.70;;;26.90;77.30;;;;;;4777527;29;20738;-77
2023/07/05 12:51:58;;;;;;;7.35;3.65;;;27.20;78.40;;;;;;4773437;29;20062;-77
2023/07/05 12:54:26;;;;;;;7.38;4.00;;;27.50;77.70;;;;;;4787084;29;20108;-77
2023/07/05 12:56:55;;;;;;;7.72;3.90;;;27.70;78.70;;;;;;4785158;29;20050;-77
2023/07/05 12:59:30;;;;;;;6.53;3.83;;;27.90;79.10;;;;;;4784545;29;20127;-78
2023/07/05 13:02:13;;;;;;;8.73;3.92;;;28.10;77.40;;;;;;4786028;29;20538;-77
2023/07/05 13:04:44;;;;;;;7.18;3.90;;;28.00;76.40;;;;;;4788000;29;20792;-78
2023/07/05 13:07:16;;;;;;;7.60;4.35;;;28.00;74.40;;;;;;4781852;29;20069;-79
2023/07/05 13:09:43;;;;;;;7.13;4.10;;;28.00;75.50;;;;;;4785594;29;20167;-79